createdAt,value
2022-11-14T00:01:13.150Z,11.13
2022-11-14T00:03:40.551Z,8.73
2022-11-14T00:06:08.582Z,10.23
2022-11-14T00:08:36.318Z,8.73
2022-11-14T00:11:04.022Z,8.65
2022-11-14T00:13:31.269Z,7.60
2022-11-14T00:15:58.687Z,9.63
2022-11-14T00:18:25.888Z,12.10
2022-11-14T00:20:53.926Z,8.73
2022-11-14T00:23:22.162Z,9.00
2022-11-14T00:25:49.720Z,8.77
2022-11-14T00:28:17.134Z,8.48
2022-11-14T00:30:48.799Z,9.50
2022-11-14T00:33:20.353Z,9.40
2022-11-14T00:35:55.561Z,8.40
2022-11-14T00:38:23.910Z,8.15
2022-11-14T00:40:51.436Z,8.23
2022-11-14T00:43:18.784Z,8.15
2022-11-14T00:45:46.895Z,10.98
2022-11-14T00:48:15.488Z,8.82
2022-11-14T00:50:43.912Z,8.70
2022-11-14T00:53:11.630Z,8.95
2022-11-14T00:55:38.917Z,8.60
2022-11-14T00:58:06.375Z,8.60
2022-11-14T01:00:34.084Z,7.80
2022-11-14T01:03:01.752Z,8.95
2022-11-14T01:05:29.335Z,8.95
2022-11-14T01:07:56.547Z,8.77
2022-11-14T01:10:24.159Z,8.13
2022-11-14T01:12:51.345Z,7.90
2022-11-14T01:15:18.632Z,8.57
2022-11-14T01:17:45.911Z,8.25
2022-11-14T01:20:13.264Z,8.57
2022-11-14T01:22:40.520Z,7.88
2022-11-14T01:25:08.196Z,8.43
2022-11-14T01:27:35.638Z,8.32
2022-11-14T01:30:03.278Z,8.57
2022-11-14T01:32:30.541Z,8.35
2022-11-14T01:34:57.780Z,8.27
2022-11-14T01:37:25.014Z,7.97
2022-11-14T01:39:52.197Z,9.27
2022-11-14T01:42:21.950Z,8.50
2022-11-14T01:44:52.979Z,7.90
2022-11-14T01:47:32.298Z,7.90
2022-11-14T01:50:02.087Z,8.02
2022-11-14T01:52:36.523Z,7.38
2022-11-14T01:55:08.749Z,7.78
2022-11-14T01:57:43.428Z,7.72
2022-11-14T02:02:39.395Z,7.85
2022-11-14T02:05:17.832Z,8.52
2022-11-14T02:07:45.246Z,7.95
2022-11-14T02:10:19.717Z,8.70
2022-11-14T02:12:47.256Z,8.52
2022-11-14T02:15:15.604Z,7.93
2022-11-14T02:17:44.058Z,7.22
2022-11-14T02:20:11.685Z,7.95
2022-11-14T02:22:40.894Z,7.95
2022-11-14T02:25:10.008Z,7.55
2022-11-14T02:27:39.485Z,7.55
2022-11-14T02:30:09.887Z,8.00
2022-11-14T02:33:08.754Z,7.95
2022-11-14T02:35:24.537Z,7.97
2022-11-14T02:37:51.785Z,7.82
2022-11-14T02:40:19.228Z,7.32
2022-11-14T02:42:46.516Z,7.88
2022-11-14T02:45:14.250Z,7.50
2022-11-14T02:47:41.474Z,8.02
2022-11-14T02:50:09.157Z,7.45
2022-11-14T02:52:36.365Z,7.65
2022-11-14T02:55:04.536Z,7.47
2022-11-14T02:57:31.735Z,8.32
2022-11-14T02:59:58.991Z,8.05
2022-11-14T03:02:26.212Z,7.50
2022-11-14T03:04:53.704Z,7.55
2022-11-14T03:07:21.119Z,7.40
2022-11-14T03:09:48.388Z,7.97
2022-11-14T03:12:19.974Z,7.40
2022-11-14T03:14:47.227Z,7.03
2022-11-14T03:17:14.551Z,7.97
2022-11-14T03:19:41.756Z,7.18
2022-11-14T03:22:09.065Z,6.97
2022-11-14T03:24:36.370Z,7.03
2022-11-14T03:27:03.684Z,7.60
2022-11-14T03:29:30.875Z,7.70
2022-11-14T03:31:58.125Z,7.50
2022-11-14T03:34:25.341Z,7.20
2022-11-14T03:36:52.584Z,7.07
2022-11-14T03:39:19.850Z,6.78
2022-11-14T03:41:47.102Z,6.63
2022-11-14T03:44:14.303Z,6.82
2022-11-14T03:46:41.496Z,7.13
2022-11-14T03:49:08.808Z,7.00
2022-11-14T03:51:36.401Z,7.00
2022-11-14T03:54:03.745Z,7.18
2022-11-14T03:56:30.922Z,7.07
2022-11-14T03:58:58.196Z,6.88
2022-11-14T04:01:25.448Z,7.03
2022-11-14T04:03:52.749Z,7.32
2022-11-14T04:06:20.018Z,7.47
2022-11-14T04:08:47.497Z,7.25
2022-11-14T04:11:14.691Z,6.47
2022-11-14T04:13:41.939Z,6.70
2022-11-14T04:16:09.184Z,6.50
2022-11-14T04:18:36.438Z,7.00
2022-11-14T04:21:03.824Z,7.22
2022-11-14T04:23:31.108Z,7.15
2022-11-14T04:25:58.691Z,6.82
2022-11-14T04:28:25.904Z,7.10
2022-11-14T04:30:53.186Z,7.40
2022-11-14T04:33:20.520Z,6.95
2022-11-14T04:35:48.038Z,6.70
2022-11-14T04:38:15.325Z,6.80
2022-11-14T04:40:51.961Z,7.45
2022-11-14T04:43:20.512Z,7.60
2022-11-14T04:45:48.073Z,6.78
2022-11-14T04:48:15.396Z,6.60
2022-11-14T04:50:42.653Z,6.45
2022-11-14T04:53:09.867Z,6.90
2022-11-14T04:55:37.081Z,7.80
2022-11-14T04:58:04.420Z,7.75
2022-11-14T05:00:31.653Z,8.27
2022-11-14T05:03:01.922Z,7.18
2022-11-14T05:05:29.173Z,6.47
2022-11-14T05:07:56.473Z,7.43
2022-11-14T05:10:23.824Z,7.18
2022-11-14T05:12:54.697Z,6.63
2022-11-14T05:15:22.321Z,6.20
2022-11-14T05:17:49.772Z,7.00
2022-11-14T05:20:17.460Z,7.85
2022-11-14T05:22:44.820Z,8.02
2022-11-14T05:25:12.113Z,6.93
2022-11-14T05:27:39.407Z,7.68
2022-11-14T05:30:07.185Z,7.63
2022-11-14T05:32:34.463Z,6.95
2022-11-14T05:35:01.708Z,7.50
2022-11-14T05:37:28.990Z,7.65
2022-11-14T05:39:56.306Z,7.25
2022-11-14T05:42:23.535Z,6.88
2022-11-14T05:44:50.855Z,7.95
2022-11-14T05:47:18.042Z,7.53
2022-11-14T05:49:45.463Z,9.40
2022-11-14T05:52:12.918Z,8.55
2022-11-14T05:54:40.153Z,7.15
2022-11-14T05:57:07.393Z,7.80
2022-11-14T05:59:34.640Z,7.50
2022-11-14T06:02:01.988Z,8.32
2022-11-14T06:04:29.325Z,7.75
2022-11-14T06:06:56.565Z,7.90
2022-11-14T06:09:23.956Z,9.50
2022-11-14T06:11:51.391Z,7.65
2022-11-14T06:14:18.603Z,7.78
2022-11-14T06:16:45.830Z,8.00
2022-11-14T06:19:13.222Z,8.60
2022-11-14T06:21:40.483Z,7.38
2022-11-14T06:24:07.900Z,8.15
2022-11-14T06:26:35.360Z,8.27
2022-11-14T06:29:02.635Z,8.55
2022-11-14T06:31:29.949Z,8.25
2022-11-14T06:33:57.241Z,8.73
2022-11-14T06:36:24.672Z,8.65
2022-11-14T06:38:51.974Z,7.13
2022-11-14T06:41:21.586Z,7.55
2022-11-14T06:43:51.101Z,8.75
2022-11-14T06:46:20.038Z,8.90
2022-11-14T06:48:48.307Z,7.75
2022-11-14T06:51:16.805Z,7.75
2022-11-14T06:53:44.794Z,8.18
2022-11-14T06:56:14.495Z,8.32
2022-11-14T06:58:47.819Z,8.65
2022-11-14T07:01:17.103Z,8.00
2022-11-14T07:03:45.389Z,7.90
2022-11-14T07:06:14.932Z,7.53
2022-11-14T07:08:42.266Z,7.63
2022-11-14T07:11:12.897Z,8.70
2022-11-14T07:13:40.186Z,10.35
2022-11-14T07:16:07.745Z,10.25
2022-11-14T07:18:34.975Z,9.68
2022-11-14T07:21:05.179Z,10.32
2022-11-14T07:23:36.074Z,8.93
2022-11-14T07:26:08.719Z,10.95
2022-11-14T07:28:45.953Z,12.43
2022-11-14T07:31:17.749Z,10.77
2022-11-14T07:33:46.389Z,11.23
2022-11-14T07:36:15.392Z,10.05
2022-11-14T07:38:43.245Z,11.23
2022-11-14T07:41:13.223Z,10.77
2022-11-14T07:43:41.426Z,13.20
2022-11-14T07:46:12.546Z,11.38
2022-11-14T07:48:40.036Z,11.77
2022-11-14T07:51:15.019Z,13.13
2022-11-14T07:53:42.319Z,10.27
2022-11-14T07:56:10.964Z,12.40
2022-11-14T07:58:39.951Z,11.63
2022-11-14T08:01:09.786Z,10.88
2022-11-14T08:03:42.277Z,11.65
2022-11-14T08:06:14.470Z,9.98
2022-11-14T08:08:41.820Z,11.57
2022-11-14T08:11:09.624Z,10.38
2022-11-14T08:13:36.974Z,12.43
2022-11-14T08:16:13.322Z,11.90
2022-11-14T08:18:42.070Z,13.55
2022-11-14T08:21:09.353Z,9.93
2022-11-14T08:23:36.724Z,11.40
2022-11-14T08:26:04.141Z,10.93
2022-11-14T08:28:31.781Z,10.38
2022-11-14T08:31:03.725Z,9.63
2022-11-14T08:33:31.932Z,10.95
2022-11-14T08:36:03.182Z,13.45
2022-11-14T08:38:32.478Z,11.15
2022-11-14T08:41:01.274Z,12.18
2022-11-14T08:43:28.971Z,11.93
2022-11-14T08:46:01.749Z,9.40
2022-11-14T08:48:30.594Z,10.52
2022-11-14T08:51:01.822Z,10.95
2022-11-14T08:53:29.294Z,11.30
2022-11-14T08:55:56.733Z,12.15
2022-11-14T08:58:23.943Z,11.88
2022-11-14T09:00:52.022Z,12.55
2022-11-14T09:03:19.406Z,14.73
2022-11-14T09:05:52.816Z,13.02
2022-11-14T09:08:20.392Z,16.02
2022-11-14T09:10:47.676Z,16.60
2022-11-14T09:13:15.690Z,14.20
2022-11-14T09:15:43.560Z,15.35
2022-11-14T09:18:12.275Z,13.70
2022-11-14T09:20:40.516Z,15.82
2022-11-14T09:23:07.918Z,19.00
2022-11-14T09:25:37.055Z,20.10
2022-11-14T09:28:06.556Z,16.08
2022-11-14T09:30:35.314Z,15.98
2022-11-14T09:33:08.573Z,19.75
2022-11-14T09:35:38.596Z,18.00
2022-11-14T09:38:08.862Z,18.23
2022-11-14T09:40:57.674Z,19.67
2022-11-14T09:43:52.279Z,17.38
2022-11-14T09:46:54.893Z,16.77
2022-11-14T09:49:35.262Z,18.20
2022-11-14T09:52:22.984Z,17.52
2022-11-14T09:54:57.446Z,20.45
2022-11-14T09:57:26.335Z,17.90
2022-11-14T09:59:54.729Z,17.23
2022-11-14T10:02:57.259Z,21.10
2022-11-14T10:05:52.139Z,20.00
2022-11-14T10:08:34.315Z,19.40
2022-11-14T10:11:04.522Z,18.67
2022-11-14T10:14:02.622Z,19.48
2022-11-14T10:16:52.151Z,22.35
2022-11-14T10:19:22.406Z,19.13
2022-11-14T10:22:20.377Z,21.52
2022-11-14T10:24:55.774Z,21.23
2022-11-14T10:27:56.549Z,21.98
2022-11-14T10:30:42.093Z,25.35
2022-11-14T10:33:15.210Z,21.63
2022-11-14T10:35:48.193Z,23.52
2022-11-14T10:38:37.413Z,22.50
2022-11-14T10:41:15.921Z,22.38
2022-11-14T10:43:56.220Z,19.17
2022-11-14T10:46:25.369Z,21.00
2022-11-14T10:48:58.903Z,21.27
2022-11-14T10:51:30.117Z,22.67
2022-11-14T10:54:03.987Z,25.73
2022-11-14T10:56:31.362Z,21.98
2022-11-14T10:58:58.639Z,23.80
2022-11-14T11:01:41.506Z,24.15
2022-11-14T11:04:24.701Z,25.15
2022-11-14T11:06:54.636Z,24.83
2022-11-14T11:09:46.812Z,22.02
2022-11-14T11:12:20.205Z,21.88
2022-11-14T11:14:50.294Z,21.95
2022-11-14T11:17:22.954Z,25.20
2022-11-14T11:19:50.452Z,26.45
2022-11-14T11:22:38.843Z,25.08
2022-11-14T11:25:36.069Z,24.10
2022-11-14T11:28:19.133Z,22.85
2022-11-14T11:31:07.030Z,18.77
2022-11-14T11:33:39.523Z,22.63
2022-11-14T11:36:20.342Z,18.85
2022-11-14T11:38:49.134Z,20.02
2022-11-14T11:42:07.300Z,21.70
2022-11-14T11:44:22.192Z,18.15
2022-11-14T11:47:00.941Z,17.88
2022-11-14T11:49:43.013Z,18.88
2022-11-14T11:52:26.692Z,19.08
2022-11-14T11:55:21.947Z,16.92
2022-11-14T11:58:14.483Z,17.00
2022-11-14T12:00:41.888Z,16.02
2022-11-14T12:03:20.198Z,17.35
2022-11-14T12:05:56.664Z,13.95
2022-11-14T12:08:46.459Z,19.85
2022-11-14T12:11:19.834Z,21.48
2022-11-14T12:14:12.442Z,19.88
2022-11-14T12:16:51.845Z,16.00
2022-11-14T12:19:40.309Z,15.15
2022-11-14T12:22:51.836Z,15.80
2022-11-14T12:25:25.010Z,17.08
2022-11-14T12:28:03.047Z,17.80
2022-11-14T12:30:33.040Z,16.45
2022-11-14T12:33:11.977Z,15.00
2022-11-14T12:35:51.905Z,16.35
2022-11-14T12:38:21.146Z,15.73
2022-11-14T12:41:00.290Z,16.58
2022-11-14T12:43:38.606Z,16.52
2022-11-14T12:46:11.670Z,15.18
2022-11-14T12:48:41.685Z,16.05
2022-11-14T12:51:27.492Z,16.25
2022-11-14T12:53:56.849Z,14.60
2022-11-14T12:56:30.376Z,14.73
2022-11-14T12:59:22.378Z,12.50
2022-11-14T13:01:52.649Z,12.60
2022-11-14T13:04:32.203Z,13.75
2022-11-14T13:07:32.972Z,13.20
2022-11-14T13:10:15.652Z,12.50
2022-11-14T13:13:15.691Z,12.68
2022-11-14T13:16:16.881Z,15.05
2022-11-14T13:19:30.826Z,12.38
2022-11-14T13:22:13.169Z,14.30
2022-11-14T13:25:01.070Z,12.75
2022-11-14T13:28:00.641Z,11.63
2022-11-14T13:33:09.926Z,11.70
2022-11-14T13:35:40.677Z,14.38
2022-11-14T13:38:35.312Z,13.13
2022-11-14T13:41:23.874Z,12.10
2022-11-14T13:44:00.430Z,13.68
2022-11-14T13:46:52.326Z,11.27
2022-11-14T13:49:38.284Z,14.60
2022-11-14T13:52:06.035Z,11.77
2022-11-14T13:54:33.845Z,13.40
2022-11-14T13:57:20.375Z,10.65
2022-11-14T14:00:00.360Z,11.93
2022-11-14T14:02:55.047Z,11.20
2022-11-14T14:05:48.431Z,13.55
2022-11-14T14:08:30.630Z,12.52
2022-11-14T14:11:18.801Z,13.57
2022-11-14T14:14:13.872Z,11.68
2022-11-14T14:16:54.105Z,12.30
2022-11-14T14:19:26.226Z,12.13
2022-11-14T14:22:15.076Z,10.95
2022-11-14T14:25:09.614Z,11.13
2022-11-14T14:28:09.255Z,12.95
2022-11-14T14:30:36.589Z,10.60
2022-11-14T14:33:15.215Z,11.35
2022-11-14T14:35:51.727Z,12.18
2022-11-14T14:38:25.809Z,11.30
2022-11-14T14:40:55.959Z,12.20
2022-11-14T14:43:34.568Z,12.40
2022-11-14T14:46:02.735Z,11.43
2022-11-14T14:48:34.599Z,12.13
2022-11-14T14:51:08.133Z,10.95
2022-11-14T14:53:36.669Z,10.20
2022-11-14T14:56:06.900Z,10.35
2022-11-14T14:58:35.762Z,13.48
2022-11-14T15:01:07.342Z,10.40
2022-11-14T15:03:44.547Z,10.00
2022-11-14T15:06:30.509Z,11.15
2022-11-14T15:09:17.428Z,9.93
2022-11-14T15:11:47.719Z,10.60
2022-11-14T15:14:19.689Z,11.90
2022-11-14T15:16:50.797Z,11.13
2022-11-14T15:19:22.843Z,9.52
2022-11-14T15:22:10.761Z,11.23
2022-11-14T15:24:38.041Z,9.38
2022-11-14T15:27:12.008Z,9.07
2022-11-14T15:29:57.943Z,9.18
2022-11-14T15:32:26.506Z,9.77
2022-11-14T15:35:25.697Z,9.73
2022-11-14T15:38:36.705Z,10.35
2022-11-14T15:41:16.788Z,9.57
2022-11-14T15:43:43.979Z,10.77
2022-11-14T15:46:27.605Z,9.25
2022-11-14T15:48:55.408Z,11.15
2022-11-14T15:51:41.284Z,8.75
2022-11-14T15:54:22.809Z,10.77
2022-11-14T15:56:50.888Z,9.80
2022-11-14T15:59:18.618Z,10.40
2022-11-14T16:01:49.175Z,9.10
2022-11-14T16:04:20.687Z,9.82
2022-11-14T16:06:48.379Z,10.07
2022-11-14T16:09:18.279Z,9.15
2022-11-14T16:11:48.600Z,10.63
2022-11-14T16:14:16.459Z,9.40
2022-11-14T16:16:43.675Z,8.48
2022-11-14T16:19:15.206Z,9.20
2022-11-14T16:21:42.773Z,9.13
2022-11-14T16:24:21.806Z,11.75
2022-11-14T16:26:50.042Z,11.75
2022-11-14T16:29:17.795Z,9.50
2022-11-14T16:31:45.074Z,10.98
2022-11-14T16:34:26.419Z,12.35
2022-11-14T16:37:01.720Z,12.07
2022-11-14T16:39:29.532Z,8.98
2022-11-14T16:42:03.579Z,11.80
2022-11-14T16:44:37.157Z,9.88
2022-11-14T16:47:07.632Z,9.10
2022-11-14T16:49:34.856Z,11.45
2022-11-14T16:52:07.054Z,13.43
2022-11-14T16:54:34.379Z,11.13
2022-11-14T16:57:01.579Z,10.95
2022-11-14T16:59:29.774Z,10.15
2022-11-14T17:01:57.141Z,11.13
2022-11-14T17:04:24.454Z,11.80
2022-11-14T17:06:51.727Z,10.77
2022-11-14T17:09:19.065Z,12.65
2022-11-14T17:11:46.708Z,12.82
2022-11-14T17:14:26.500Z,10.32
2022-11-14T17:16:53.813Z,11.20
2022-11-14T17:19:23.002Z,14.98
2022-11-14T17:21:51.420Z,14.38
2022-11-14T17:24:18.687Z,15.70
2022-11-14T17:26:45.946Z,11.30
2022-11-14T17:29:13.305Z,10.18
2022-11-14T17:31:45.779Z,14.30
2022-11-14T17:34:14.167Z,14.50
2022-11-14T17:36:41.562Z,10.13
2022-11-14T17:39:08.840Z,13.10
2022-11-14T17:41:36.128Z,10.60
2022-11-14T17:44:03.698Z,10.25
2022-11-14T17:46:31.448Z,15.15
2022-11-14T17:48:59.290Z,15.70
2022-11-14T17:51:26.821Z,13.63
2022-11-14T17:53:54.127Z,10.50
2022-11-14T17:56:23.601Z,12.10
2022-11-14T17:58:53.228Z,15.18
2022-11-14T18:01:23.473Z,11.70
2022-11-14T18:03:50.799Z,15.13
2022-11-14T18:06:20.692Z,13.82
2022-11-14T18:08:48.373Z,16.58
2022-11-14T18:11:17.388Z,12.65
2022-11-14T18:13:44.687Z,13.27
2022-11-14T18:16:15.087Z,12.95
2022-11-14T18:18:42.351Z,11.48
2022-11-14T18:21:19.398Z,11.95
2022-11-14T18:23:58.323Z,11.38
2022-11-14T18:26:28.339Z,11.77
2022-11-14T18:29:01.010Z,12.75
2022-11-14T18:31:28.812Z,12.45
2022-11-14T18:33:56.966Z,15.65
2022-11-14T18:36:24.616Z,16.08
2022-11-14T18:38:51.849Z,16.75
2022-11-14T18:41:21.187Z,16.77
2022-11-14T18:43:49.437Z,17.05
2022-11-14T18:46:25.040Z,13.43
2022-11-14T18:48:57.241Z,16.02
2022-11-14T18:51:29.746Z,17.08
2022-11-14T18:53:59.300Z,21.70
2022-11-14T18:56:27.149Z,21.23
2022-11-14T18:58:56.258Z,18.50
2022-11-14T19:01:26.406Z,22.75
2022-11-14T19:03:57.577Z,26.10
2022-11-14T19:06:25.367Z,24.98
2022-11-14T19:08:57.784Z,23.55
2022-11-14T19:11:43.811Z,21.73
2022-11-14T19:14:11.121Z,22.95
2022-11-14T19:16:38.887Z,25.95
2022-11-14T19:19:07.189Z,23.00
2022-11-14T19:21:35.074Z,25.38
2022-11-14T19:24:02.361Z,21.98
2022-11-14T19:26:30.374Z,27.83
2022-11-14T19:29:02.277Z,23.27
2022-11-14T19:31:29.852Z,22.85
2022-11-14T19:33:57.111Z,20.65
